sensor_id;sensor_type;location;lat;lon;timestamp;P1;durP1;ratioP1;P2;durP2;ratioP2
75772;SDS011;64381;0.000;0.000;2022-11-13T00:00:48;6.60;;;4.27;;
75772;SDS011;64381;0.000;0.000;2022-11-13T00:03:14;6.83;;;4.33;;
75772;SDS011;64381;0.000;0.000;2022-11-13T00:05:39;7.70;;;4.17;;
75772;SDS011;64381;0.000;0.000;2022-11-13T00:08:04;7.33;;;4.30;;
75772;SDS011;64381;0.000;0.000;2022-11-13T00:10:30;7.07;;;4.60;;
75772;SDS011;64381;0.000;0.000;2022-11-13T00:12:55;7.07;;;4.53;;
75772;SDS011;64381;0.000;0.000;2022-11-13T00:15:20;6.80;;;4.30;;
75772;SDS011;64381;0.000;0.000;2022-11-13T00:17:45;6.53;;;4.53;;
75772;SDS011;64381;0.000;0.000;2022-11-13T00:20:11;6.63;;;4.50;;
75772;SDS011;64381;0.000;0.000;2022-11-13T00:22:36;7.43;;;4.70;;
75772;SDS011;64381;0.000;0.000;2022-11-13T00:25:01;6.70;;;4.30;;
75772;SDS011;64381;0.000;0.000;2022-11-13T00:27:28;7.03;;;4.68;;
75772;SDS011;64381;0.000;0.000;2022-11-13T00:29:54;6.40;;;4.47;;
75772;SDS011;64381;0.000;0.000;2022-11-13T00:32:19;7.50;;;4.43;;
75772;SDS011;64381;0.000;0.000;2022-11-13T00:34:45;7.33;;;4.80;;
75772;SDS011;64381;0.000;0.000;2022-11-13T00:37:10;7.63;;;4.70;;
75772;SDS011;64381;0.000;0.000;2022-11-13T00:39:35;6.70;;;4.50;;
75772;SDS011;64381;0.000;0.000;2022-11-13T00:42:00;7.40;;;4.90;;
75772;SDS011;64381;0.000;0.000;2022-11-13T00:44:25;6.77;;;4.80;;
75772;SDS011;64381;0.000;0.000;2022-11-13T00:46:51;7.07;;;4.43;;
75772;SDS011;64381;0.000;0.000;2022-11-13T00:49:16;7.03;;;4.77;;
75772;SDS011;64381;0.000;0.000;2022-11-13T00:51:41;7.10;;;4.80;;
75772;SDS011;64381;0.000;0.000;2022-11-13T00:54:06;7.33;;;5.00;;
75772;SDS011;64381;0.000;0.000;2022-11-13T00:56:32;6.13;;;4.57;;
75772;SDS011;64381;0.000;0.000;2022-11-13T00:58:57;6.40;;;4.43;;
75772;SDS011;64381;0.000;0.000;2022-11-13T01:01:22;6.33;;;4.40;;
75772;SDS011;64381;0.000;0.000;2022-11-13T01:03:47;5.80;;;4.20;;
75772;SDS011;64381;0.000;0.000;2022-11-13T01:06:20;6.57;;;4.40;;
75772;SDS011;64381;0.000;0.000;2022-11-13T01:08:47;6.57;;;4.40;;
75772;SDS011;64381;0.000;0.000;2022-11-13T01:11:15;6.47;;;4.57;;
75772;SDS011;64381;0.000;0.000;2022-11-13T01:13:42;6.10;;;4.18;;
75772;SDS011;64381;0.000;0.000;2022-11-13T01:16:10;7.47;;;5.00;;
75772;SDS011;64381;0.000;0.000;2022-11-13T01:18:37;6.10;;;4.10;;
75772;SDS011;64381;0.000;0.000;2022-11-13T01:23:42;5.70;;;3.80;;
75772;SDS011;64381;0.000;0.000;2022-11-13T01:26:17;6.07;;;4.10;;
75772;SDS011;64381;0.000;0.000;2022-11-13T01:28:45;6.47;;;3.87;;
75772;SDS011;64381;0.000;0.000;2022-11-13T01:31:12;5.63;;;4.00;;
75772;SDS011;64381;0.000;0.000;2022-11-13T01:33:39;6.30;;;4.30;;
75772;SDS011;64381;0.000;0.000;2022-11-13T01:36:06;6.07;;;4.13;;
75772;SDS011;64381;0.000;0.000;2022-11-13T01:38:34;5.75;;;3.85;;
75772;SDS011;64381;0.000;0.000;2022-11-13T01:40:59;5.57;;;3.70;;
75772;SDS011;64381;0.000;0.000;2022-11-13T01:43:26;6.17;;;4.00;;
75772;SDS011;64381;0.000;0.000;2022-11-13T01:48:22;5.45;;;4.05;;
75772;SDS011;64381;0.000;0.000;2022-11-13T01:50:51;6.45;;;4.00;;
75772;SDS011;64381;0.000;0.000;2022-11-13T01:53:16;6.83;;;4.33;;
75772;SDS011;64381;0.000;0.000;2022-11-13T01:55:41;5.53;;;3.60;;
75772;SDS011;64381;0.000;0.000;2022-11-13T01:58:07;5.70;;;4.00;;
75772;SDS011;64381;0.000;0.000;2022-11-13T02:00:34;5.97;;;3.90;;
75772;SDS011;64381;0.000;0.000;2022-11-13T02:02:59;5.55;;;3.70;;
75772;SDS011;64381;0.000;0.000;2022-11-13T02:05:25;5.87;;;4.10;;
75772;SDS011;64381;0.000;0.000;2022-11-13T02:07:50;6.10;;;3.97;;
75772;SDS011;64381;0.000;0.000;2022-11-13T02:10:16;5.60;;;3.90;;
75772;SDS011;64381;0.000;0.000;2022-11-13T02:12:42;5.57;;;3.77;;
75772;SDS011;64381;0.000;0.000;2022-11-13T02:15:10;6.07;;;3.85;;
75772;SDS011;64381;0.000;0.000;2022-11-13T02:17:37;5.90;;;4.13;;
75772;SDS011;64381;0.000;0.000;2022-11-13T02:20:05;5.72;;;4.20;;
75772;SDS011;64381;0.000;0.000;2022-11-13T02:22:40;5.15;;;3.90;;
75772;SDS011;64381;0.000;0.000;2022-11-13T02:25:13;5.28;;;3.72;;
75772;SDS011;64381;0.000;0.000;2022-11-13T02:27:41;5.13;;;3.83;;
75772;SDS011;64381;0.000;0.000;2022-11-13T02:30:28;5.10;;;3.50;;
75772;SDS011;64381;0.000;0.000;2022-11-13T02:32:55;5.30;;;3.75;;
75772;SDS011;64381;0.000;0.000;2022-11-13T02:37:59;5.00;;;3.47;;
75772;SDS011;64381;0.000;0.000;2022-11-13T02:40:26;5.38;;;3.70;;
75772;SDS011;64381;0.000;0.000;2022-11-13T02:42:52;6.00;;;3.60;;
75772;SDS011;64381;0.000;0.000;2022-11-13T02:45:17;4.70;;;3.10;;
75772;SDS011;64381;0.000;0.000;2022-11-13T02:47:43;5.70;;;3.53;;
75772;SDS011;64381;0.000;0.000;2022-11-13T02:50:08;5.18;;;3.38;;
75772;SDS011;64381;0.000;0.000;2022-11-13T02:52:34;5.33;;;3.57;;
75772;SDS011;64381;0.000;0.000;2022-11-13T02:55:00;4.82;;;3.47;;
75772;SDS011;64381;0.000;0.000;2022-11-13T02:57:25;5.17;;;3.60;;
75772;SDS011;64381;0.000;0.000;2022-11-13T02:59:50;4.63;;;3.17;;
75772;SDS011;64381;0.000;0.000;2022-11-13T03:02:16;4.60;;;3.20;;
75772;SDS011;64381;0.000;0.000;2022-11-13T03:04:41;5.27;;;3.40;;
75772;SDS011;64381;0.000;0.000;2022-11-13T03:07:06;4.90;;;3.20;;
75772;SDS011;64381;0.000;0.000;2022-11-13T03:09:31;5.13;;;3.60;;
75772;SDS011;64381;0.000;0.000;2022-11-13T03:11:57;4.60;;;3.10;;
75772;SDS011;64381;0.000;0.000;2022-11-13T03:14:22;4.97;;;3.30;;
75772;SDS011;64381;0.000;0.000;2022-11-13T03:16:47;4.57;;;3.20;;
75772;SDS011;64381;0.000;0.000;2022-11-13T03:19:13;4.80;;;3.00;;
75772;SDS011;64381;0.000;0.000;2022-11-13T03:21:38;5.47;;;3.10;;
75772;SDS011;64381;0.000;0.000;2022-11-13T03:24:03;4.87;;;3.33;;
75772;SDS011;64381;0.000;0.000;2022-11-13T03:26:29;4.88;;;3.20;;
75772;SDS011;64381;0.000;0.000;2022-11-13T03:28:54;5.47;;;3.70;;
75772;SDS011;64381;0.000;0.000;2022-11-13T03:31:20;4.90;;;3.20;;
75772;SDS011;64381;0.000;0.000;2022-11-13T03:33:45;4.75;;;3.28;;
75772;SDS011;64381;0.000;0.000;2022-11-13T03:36:11;4.63;;;3.40;;
75772;SDS011;64381;0.000;0.000;2022-11-13T03:38:36;5.03;;;3.23;;
75772;SDS011;64381;0.000;0.000;2022-11-13T03:41:02;5.47;;;3.47;;
75772;SDS011;64381;0.000;0.000;2022-11-13T03:43:27;4.90;;;3.13;;
75772;SDS011;64381;0.000;0.000;2022-11-13T03:45:52;4.60;;;3.20;;
75772;SDS011;64381;0.000;0.000;2022-11-13T03:48:18;5.90;;;3.27;;
75772;SDS011;64381;0.000;0.000;2022-11-13T03:50:44;5.27;;;3.60;;
75772;SDS011;64381;0.000;0.000;2022-11-13T03:53:11;5.47;;;3.53;;
75772;SDS011;64381;0.000;0.000;2022-11-13T03:55:37;5.00;;;3.30;;
75772;SDS011;64381;0.000;0.000;2022-11-13T03:58:02;5.63;;;3.43;;
75772;SDS011;64381;0.000;0.000;2022-11-13T04:00:27;5.30;;;3.30;;
75772;SDS011;64381;0.000;0.000;2022-11-13T04:02:53;5.40;;;3.60;;
75772;SDS011;64381;0.000;0.000;2022-11-13T04:05:18;4.83;;;3.20;;
75772;SDS011;64381;0.000;0.000;2022-11-13T04:07:43;5.33;;;3.00;;
75772;SDS011;64381;0.000;0.000;2022-11-13T04:10:08;5.60;;;3.67;;
75772;SDS011;64381;0.000;0.000;2022-11-13T04:12:34;5.90;;;3.40;;
75772;SDS011;64381;0.000;0.000;2022-11-13T04:14:59;4.90;;;3.13;;
75772;SDS011;64381;0.000;0.000;2022-11-13T04:17:24;4.50;;;3.00;;
75772;SDS011;64381;0.000;0.000;2022-11-13T04:19:49;5.30;;;3.60;;
75772;SDS011;64381;0.000;0.000;2022-11-13T04:22:15;5.30;;;3.43;;
75772;SDS011;64381;0.000;0.000;2022-11-13T04:24:40;4.83;;;3.40;;
75772;SDS011;64381;0.000;0.000;2022-11-13T04:27:05;5.80;;;3.20;;
75772;SDS011;64381;0.000;0.000;2022-11-13T04:29:30;5.30;;;3.70;;
75772;SDS011;64381;0.000;0.000;2022-11-13T04:31:55;5.03;;;3.37;;
75772;SDS011;64381;0.000;0.000;2022-11-13T04:34:21;5.23;;;3.40;;
75772;SDS011;64381;0.000;0.000;2022-11-13T04:36:46;5.07;;;3.37;;
75772;SDS011;64381;0.000;0.000;2022-11-13T04:39:11;4.80;;;3.20;;
75772;SDS011;64381;0.000;0.000;2022-11-13T04:41:36;4.83;;;3.13;;
75772;SDS011;64381;0.000;0.000;2022-11-13T04:44:02;5.03;;;3.50;;
75772;SDS011;64381;0.000;0.000;2022-11-13T04:46:27;5.30;;;3.30;;
75772;SDS011;64381;0.000;0.000;2022-11-13T04:48:52;5.27;;;3.63;;
75772;SDS011;64381;0.000;0.000;2022-11-13T04:51:17;5.43;;;3.70;;
75772;SDS011;64381;0.000;0.000;2022-11-13T04:53:43;5.10;;;3.17;;
75772;SDS011;64381;0.000;0.000;2022-11-13T04:56:08;5.07;;;3.57;;
75772;SDS011;64381;0.000;0.000;2022-11-13T04:58:33;5.00;;;3.40;;
75772;SDS011;64381;0.000;0.000;2022-11-13T05:00:58;5.10;;;3.47;;
75772;SDS011;64381;0.000;0.000;2022-11-13T05:03:23;5.17;;;3.73;;
75772;SDS011;64381;0.000;0.000;2022-11-13T05:05:49;4.70;;;3.20;;
75772;SDS011;64381;0.000;0.000;2022-11-13T05:08:14;4.57;;;3.30;;
75772;SDS011;64381;0.000;0.000;2022-11-13T05:10:39;4.90;;;3.50;;
75772;SDS011;64381;0.000;0.000;2022-11-13T05:13:04;4.70;;;3.40;;
75772;SDS011;64381;0.000;0.000;2022-11-13T05:15:29;4.77;;;3.30;;
75772;SDS011;64381;0.000;0.000;2022-11-13T05:17:56;4.70;;;3.20;;
75772;SDS011;64381;0.000;0.000;2022-11-13T05:20:21;5.00;;;3.50;;
75772;SDS011;64381;0.000;0.000;2022-11-13T05:22:46;4.50;;;3.10;;
75772;SDS011;64381;0.000;0.000;2022-11-13T05:25:11;5.23;;;3.60;;
75772;SDS011;64381;0.000;0.000;2022-11-13T05:27:37;6.03;;;3.37;;
75772;SDS011;64381;0.000;0.000;2022-11-13T05:30:02;5.10;;;3.50;;
75772;SDS011;64381;0.000;0.000;2022-11-13T05:32:28;4.90;;;3.50;;
75772;SDS011;64381;0.000;0.000;2022-11-13T05:34:53;5.10;;;3.50;;
75772;SDS011;64381;0.000;0.000;2022-11-13T05:37:18;5.07;;;3.60;;
75772;SDS011;64381;0.000;0.000;2022-11-13T05:39:44;4.90;;;3.40;;
75772;SDS011;64381;0.000;0.000;2022-11-13T05:42:09;5.57;;;3.53;;
75772;SDS011;64381;0.000;0.000;2022-11-13T05:44:34;4.93;;;3.63;;
75772;SDS011;64381;0.000;0.000;2022-11-13T05:46:59;5.70;;;3.70;;
75772;SDS011;64381;0.000;0.000;2022-11-13T05:49:25;5.13;;;3.43;;
75772;SDS011;64381;0.000;0.000;2022-11-13T05:51:50;5.23;;;3.50;;
75772;SDS011;64381;0.000;0.000;2022-11-13T05:54:18;4.95;;;3.33;;
75772;SDS011;64381;0.000;0.000;2022-11-13T05:56:43;5.37;;;3.60;;
75772;SDS011;64381;0.000;0.000;2022-11-13T05:59:08;5.37;;;3.43;;
75772;SDS011;64381;0.000;0.000;2022-11-13T06:01:34;4.77;;;3.30;;
75772;SDS011;64381;0.000;0.000;2022-11-13T06:04:01;5.20;;;3.50;;
75772;SDS011;64381;0.000;0.000;2022-11-13T06:06:27;4.90;;;3.23;;
75772;SDS011;64381;0.000;0.000;2022-11-13T06:08:54;4.35;;;3.30;;
75772;SDS011;64381;0.000;0.000;2022-11-13T06:11:21;4.57;;;3.58;;
75772;SDS011;64381;0.000;0.000;2022-11-13T06:13:48;5.55;;;3.38;;
75772;SDS011;64381;0.000;0.000;2022-11-13T06:16:15;4.90;;;3.57;;
75772;SDS011;64381;0.000;0.000;2022-11-13T06:18:42;4.85;;;3.60;;
75772;SDS011;64381;0.000;0.000;2022-11-13T06:21:10;5.90;;;3.60;;
75772;SDS011;64381;0.000;0.000;2022-11-13T06:23:43;4.72;;;3.20;;
75772;SDS011;64381;0.000;0.000;2022-11-13T06:26:15;4.43;;;3.10;;
75772;SDS011;64381;0.000;0.000;2022-11-13T06:28:42;5.72;;;3.50;;
75772;SDS011;64381;0.000;0.000;2022-11-13T06:31:12;5.10;;;3.17;;
75772;SDS011;64381;0.000;0.000;2022-11-13T06:33:39;5.60;;;3.60;;
75772;SDS011;64381;0.000;0.000;2022-11-13T06:36:07;5.03;;;3.47;;
75772;SDS011;64381;0.000;0.000;2022-11-13T06:38:40;4.80;;;3.37;;
75772;SDS011;64381;0.000;0.000;2022-11-13T06:41:06;4.63;;;2.85;;
75772;SDS011;64381;0.000;0.000;2022-11-13T06:43:33;4.68;;;3.17;;
75772;SDS011;64381;0.000;0.000;2022-11-13T06:46:01;4.90;;;3.33;;
75772;SDS011;64381;0.000;0.000;2022-11-13T06:48:32;5.40;;;3.45;;
75772;SDS011;64381;0.000;0.000;2022-11-13T06:51:01;5.32;;;3.13;;
75772;SDS011;64381;0.000;0.000;2022-11-13T06:53:30;5.20;;;3.70;;
75772;SDS011;64381;0.000;0.000;2022-11-13T06:55:56;5.30;;;3.30;;
75772;SDS011;64381;0.000;0.000;2022-11-13T06:58:22;4.93;;;3.45;;
75772;SDS011;64381;0.000;0.000;2022-11-13T07:00:47;5.37;;;3.67;;
75772;SDS011;64381;0.000;0.000;2022-11-13T07:03:14;4.93;;;3.20;;
75772;SDS011;64381;0.000;0.000;2022-11-13T07:05:43;5.10;;;3.30;;
75772;SDS011;64381;0.000;0.000;2022-11-13T07:08:09;4.70;;;3.20;;
75772;SDS011;64381;0.000;0.000;2022-11-13T07:10:35;5.40;;;3.53;;
75772;SDS011;64381;0.000;0.000;2022-11-13T07:13:00;4.53;;;3.10;;
75772;SDS011;64381;0.000;0.000;2022-11-13T07:15:26;5.50;;;3.10;;
75772;SDS011;64381;0.000;0.000;2022-11-13T07:17:51;5.13;;;3.30;;
75772;SDS011;64381;0.000;0.000;2022-11-13T07:20:17;5.30;;;3.60;;
75772;SDS011;64381;0.000;0.000;2022-11-13T07:22:42;5.30;;;3.40;;
75772;SDS011;64381;0.000;0.000;2022-11-13T07:25:08;5.77;;;3.77;;
75772;SDS011;64381;0.000;0.000;2022-11-13T07:27:33;6.03;;;3.60;;
75772;SDS011;64381;0.000;0.000;2022-11-13T07:29:58;5.47;;;3.60;;
75772;SDS011;64381;0.000;0.000;2022-11-13T07:32:24;5.67;;;3.77;;
75772;SDS011;64381;0.000;0.000;2022-11-13T07:34:49;5.63;;;3.50;;
75772;SDS011;64381;0.000;0.000;2022-11-13T07:37:14;5.10;;;3.37;;
75772;SDS011;64381;0.000;0.000;2022-11-13T07:39:39;5.60;;;3.50;;
75772;SDS011;64381;0.000;0.000;2022-11-13T07:42:04;5.07;;;3.50;;
75772;SDS011;64381;0.000;0.000;2022-11-13T07:44:30;5.17;;;3.30;;
75772;SDS011;64381;0.000;0.000;2022-11-13T07:46:55;5.17;;;3.63;;
75772;SDS011;64381;0.000;0.000;2022-11-13T07:49:20;4.50;;;2.80;;
75772;SDS011;64381;0.000;0.000;2022-11-13T07:51:45;5.00;;;3.37;;
75772;SDS011;64381;0.000;0.000;2022-11-13T07:54:11;5.17;;;3.47;;
75772;SDS011;64381;0.000;0.000;2022-11-13T07:56:36;4.90;;;3.10;;
75772;SDS011;64381;0.000;0.000;2022-11-13T07:59:01;4.70;;;3.40;;
75772;SDS011;64381;0.000;0.000;2022-11-13T08:01:26;4.73;;;3.20;;
75772;SDS011;64381;0.000;0.000;2022-11-13T08:03:51;4.80;;;3.33;;
75772;SDS011;64381;0.000;0.000;2022-11-13T08:06:17;4.67;;;3.40;;
75772;SDS011;64381;0.000;0.000;2022-11-13T08:08:42;5.00;;;3.40;;
75772;SDS011;64381;0.000;0.000;2022-11-13T08:11:07;4.60;;;3.07;;
75772;SDS011;64381;0.000;0.000;2022-11-13T08:13:34;5.37;;;3.40;;
75772;SDS011;64381;0.000;0.000;2022-11-13T08:16:00;4.90;;;3.15;;
75772;SDS011;64381;0.000;0.000;2022-11-13T08:18:27;4.90;;;3.30;;
75772;SDS011;64381;0.000;0.000;2022-11-13T08:20:53;4.75;;;3.40;;
75772;SDS011;64381;0.000;0.000;2022-11-13T08:23:18;4.90;;;3.40;;
75772;SDS011;64381;0.000;0.000;2022-11-13T08:25:44;4.60;;;3.10;;
75772;SDS011;64381;0.000;0.000;2022-11-13T08:28:09;4.67;;;3.27;;
75772;SDS011;64381;0.000;0.000;2022-11-13T08:30:34;6.07;;;3.40;;
75772;SDS011;64381;0.000;0.000;2022-11-13T08:32:59;5.07;;;3.40;;
75772;SDS011;64381;0.000;0.000;2022-11-13T08:35:26;4.90;;;3.03;;
75772;SDS011;64381;0.000;0.000;2022-11-13T08:37:51;5.17;;;3.60;;
75772;SDS011;64381;0.000;0.000;2022-11-13T08:40:17;5.57;;;3.43;;
75772;SDS011;64381;0.000;0.000;2022-11-13T08:42:42;5.38;;;3.60;;
75772;SDS011;64381;0.000;0.000;2022-11-13T08:45:07;5.70;;;3.70;;
75772;SDS011;64381;0.000;0.000;2022-11-13T08:47:33;5.30;;;3.67;;
75772;SDS011;64381;0.000;0.000;2022-11-13T08:49:58;4.93;;;3.47;;
75772;SDS011;64381;0.000;0.000;2022-11-13T08:52:23;4.90;;;3.47;;
75772;SDS011;64381;0.000;0.000;2022-11-13T08:54:49;5.00;;;3.70;;
75772;SDS011;64381;0.000;0.000;2022-11-13T08:57:14;4.90;;;3.30;;
75772;SDS011;64381;0.000;0.000;2022-11-13T08:59:39;5.50;;;3.60;;
75772;SDS011;64381;0.000;0.000;2022-11-13T09:02:04;5.07;;;3.60;;
75772;SDS011;64381;0.000;0.000;2022-11-13T09:04:30;4.93;;;3.33;;
75772;SDS011;64381;0.000;0.000;2022-11-13T09:06:55;5.33;;;3.50;;
75772;SDS011;64381;0.000;0.000;2022-11-13T09:09:21;5.73;;;3.67;;
75772;SDS011;64381;0.000;0.000;2022-11-13T09:11:46;5.50;;;3.70;;
75772;SDS011;64381;0.000;0.000;2022-11-13T09:14:12;5.67;;;3.50;;
75772;SDS011;64381;0.000;0.000;2022-11-13T09:16:37;5.77;;;3.70;;
75772;SDS011;64381;0.000;0.000;2022-11-13T09:19:02;5.40;;;3.77;;
75772;SDS011;64381;0.000;0.000;2022-11-13T09:21:28;5.63;;;3.67;;
75772;SDS011;64381;0.000;0.000;2022-11-13T09:23:53;5.17;;;3.50;;
75772;SDS011;64381;0.000;0.000;2022-11-13T09:26:19;5.63;;;3.80;;
75772;SDS011;64381;0.000;0.000;2022-11-13T09:28:44;5.47;;;3.83;;
75772;SDS011;64381;0.000;0.000;2022-11-13T09:31:09;6.50;;;3.80;;
75772;SDS011;64381;0.000;0.000;2022-11-13T09:33:35;5.40;;;3.87;;
75772;SDS011;64381;0.000;0.000;2022-11-13T09:36:00;5.80;;;3.83;;
75772;SDS011;64381;0.000;0.000;2022-11-13T09:38:25;5.07;;;3.50;;
75772;SDS011;64381;0.000;0.000;2022-11-13T09:40:52;5.37;;;3.60;;
75772;SDS011;64381;0.000;0.000;2022-11-13T09:43:37;5.32;;;3.63;;
75772;SDS011;64381;0.000;0.000;2022-11-13T09:46:17;5.30;;;3.45;;
75772;SDS011;64381;0.000;0.000;2022-11-13T09:51:33;5.63;;;3.60;;
75772;SDS011;64381;0.000;0.000;2022-11-13T09:54:02;5.40;;;3.75;;
75772;SDS011;64381;0.000;0.000;2022-11-13T09:56:33;5.55;;;3.83;;
75772;SDS011;64381;0.000;0.000;2022-11-13T10:07:32;6.10;;;3.47;;
75772;SDS011;64381;0.000;0.000;2022-11-13T10:12:53;5.78;;;3.70;;
75772;SDS011;64381;0.000;0.000;2022-11-13T10:15:22;5.32;;;3.70;;
75772;SDS011;64381;0.000;0.000;2022-11-13T10:17:52;5.50;;;3.60;;
75772;SDS011;64381;0.000;0.000;2022-11-13T10:20:31;5.28;;;3.38;;
75772;SDS011;64381;0.000;0.000;2022-11-13T10:23:05;5.43;;;3.43;;
75772;SDS011;64381;0.000;0.000;2022-11-13T10:25:34;5.70;;;3.55;;
75772;SDS011;64381;0.000;0.000;2022-11-13T10:28:01;6.05;;;3.85;;
75772;SDS011;64381;0.000;0.000;2022-11-13T10:30:35;5.43;;;3.55;;
75772;SDS011;64381;0.000;0.000;2022-11-13T10:33:02;6.33;;;3.80;;
75772;SDS011;64381;0.000;0.000;2022-11-13T10:35:41;4.70;;;3.50;;
75772;SDS011;64381;0.000;0.000;2022-11-13T10:38:16;4.97;;;3.30;;
75772;SDS011;64381;0.000;0.000;2022-11-13T10:40:46;5.30;;;3.35;;
75772;SDS011;64381;0.000;0.000;2022-11-13T10:45:39;5.00;;;3.53;;
75772;SDS011;64381;0.000;0.000;2022-11-13T10:48:05;5.22;;;3.40;;
75772;SDS011;64381;0.000;0.000;2022-11-13T10:50:50;5.70;;;4.00;;
75772;SDS011;64381;0.000;0.000;2022-11-13T10:53:17;5.40;;;3.50;;
75772;SDS011;64381;0.000;0.000;2022-11-13T10:55:44;5.30;;;3.70;;
75772;SDS011;64381;0.000;0.000;2022-11-13T10:58:13;5.23;;;3.40;;
75772;SDS011;64381;0.000;0.000;2022-11-13T11:00:40;6.15;;;3.72;;
75772;SDS011;64381;0.000;0.000;2022-11-13T11:03:07;5.53;;;3.72;;
75772;SDS011;64381;0.000;0.000;2022-11-13T11:05:52;4.95;;;3.50;;
75772;SDS011;64381;0.000;0.000;2022-11-13T11:08:20;5.15;;;3.45;;
75772;SDS011;64381;0.000;0.000;2022-11-13T11:10:56;5.97;;;3.80;;
75772;SDS011;64381;0.000;0.000;2022-11-13T11:13:25;5.82;;;3.60;;
75772;SDS011;64381;0.000;0.000;2022-11-13T11:15:53;5.57;;;3.63;;
75772;SDS011;64381;0.000;0.000;2022-11-13T11:18:27;5.15;;;3.47;;
75772;SDS011;64381;0.000;0.000;2022-11-13T11:20:57;4.60;;;3.23;;
75772;SDS011;64381;0.000;0.000;2022-11-13T11:26:12;5.40;;;3.72;;
75772;SDS011;64381;0.000;0.000;2022-11-13T11:28:43;5.35;;;3.42;;
75772;SDS011;64381;0.000;0.000;2022-11-13T11:34:20;5.53;;;3.47;;
75772;SDS011;64381;0.000;0.000;2022-11-13T11:44:39;5.57;;;3.60;;
75772;SDS011;64381;0.000;0.000;2022-11-13T11:47:14;5.50;;;3.55;;
75772;SDS011;64381;0.000;0.000;2022-11-13T11:49:42;5.47;;;3.40;;
75772;SDS011;64381;0.000;0.000;2022-11-13T12:00:21;5.45;;;3.55;;
75772;SDS011;64381;0.000;0.000;2022-11-13T12:08:28;5.67;;;3.37;;
75772;SDS011;64381;0.000;0.000;2022-11-13T12:13:59;6.20;;;3.55;;
75772;SDS011;64381;0.000;0.000;2022-11-13T12:16:48;6.28;;;3.80;;
75772;SDS011;64381;0.000;0.000;2022-11-13T12:19:44;5.95;;;4.00;;
75772;SDS011;64381;0.000;0.000;2022-11-13T12:22:16;6.57;;;3.57;;
75772;SDS011;64381;0.000;0.000;2022-11-13T12:36:13;6.53;;;4.00;;
75772;SDS011;64381;0.000;0.000;2022-11-13T12:41:40;5.95;;;3.83;;
75772;SDS011;64381;0.000;0.000;2022-11-13T12:46:48;6.70;;;4.28;;
75772;SDS011;64381;0.000;0.000;2022-11-13T12:49:25;7.00;;;4.10;;
75772;SDS011;64381;0.000;0.000;2022-11-13T12:51:55;6.50;;;3.80;;
75772;SDS011;64381;0.000;0.000;2022-11-13T12:54:25;6.90;;;3.90;;
75772;SDS011;64381;0.000;0.000;2022-11-13T12:57:04;6.63;;;4.20;;
75772;SDS011;64381;0.000;0.000;2022-11-13T12:59:37;6.50;;;4.28;;
75772;SDS011;64381;0.000;0.000;2022-11-13T13:17:36;6.53;;;3.50;;
75772;SDS011;64381;0.000;0.000;2022-11-13T13:20:04;6.23;;;3.67;;
75772;SDS011;64381;0.000;0.000;2022-11-13T13:22:32;6.20;;;3.30;;
75772;SDS011;64381;0.000;0.000;2022-11-13T13:27:31;5.93;;;3.45;;
75772;SDS011;64381;0.000;0.000;2022-11-13T13:30:11;6.15;;;3.67;;
75772;SDS011;64381;0.000;0.000;2022-11-13T13:35:47;6.40;;;3.35;;
75772;SDS011;64381;0.000;0.000;2022-11-13T13:46:20;5.40;;;2.88;;
75772;SDS011;64381;0.000;0.000;2022-11-13T13:48:48;5.93;;;3.20;;
75772;SDS011;64381;0.000;0.000;2022-11-13T13:53:51;5.50;;;3.30;;
75772;SDS011;64381;0.000;0.000;2022-11-13T13:56:19;5.72;;;3.10;;
75772;SDS011;64381;0.000;0.000;2022-11-13T13:58:45;5.13;;;3.00;;
75772;SDS011;64381;0.000;0.000;2022-11-13T14:01:12;5.82;;;3.00;;
75772;SDS011;64381;0.000;0.000;2022-11-13T14:04:01;5.60;;;3.10;;
75772;SDS011;64381;0.000;0.000;2022-11-13T14:06:27;5.47;;;3.13;;
75772;SDS011;64381;0.000;0.000;2022-11-13T14:08:52;5.60;;;3.20;;
75772;SDS011;64381;0.000;0.000;2022-11-13T14:11:19;5.10;;;3.10;;
75772;SDS011;64381;0.000;0.000;2022-11-13T14:13:46;5.03;;;3.25;;
75772;SDS011;64381;0.000;0.000;2022-11-13T14:16:11;6.07;;;3.00;;
75772;SDS011;64381;0.000;0.000;2022-11-13T14:18:36;5.80;;;3.00;;
75772;SDS011;64381;0.000;0.000;2022-11-13T14:21:04;6.50;;;3.10;;
75772;SDS011;64381;0.000;0.000;2022-11-13T14:23:36;5.90;;;2.97;;
75772;SDS011;64381;0.000;0.000;2022-11-13T14:26:07;5.07;;;2.85;;
75772;SDS011;64381;0.000;0.000;2022-11-13T14:28:41;9.00;;;2.90;;
75772;SDS011;64381;0.000;0.000;2022-11-13T14:31:10;7.10;;;3.50;;
75772;SDS011;64381;0.000;0.000;2022-11-13T14:33:41;5.55;;;3.17;;
75772;SDS011;64381;0.000;0.000;2022-11-13T14:36:09;8.27;;;3.78;;
75772;SDS011;64381;0.000;0.000;2022-11-13T14:38:38;6.38;;;3.50;;
75772;SDS011;64381;0.000;0.000;2022-11-13T14:41:13;6.60;;;3.60;;
75772;SDS011;64381;0.000;0.000;2022-11-13T14:43:46;7.63;;;3.80;;
75772;SDS011;64381;0.000;0.000;2022-11-13T14:46:30;6.20;;;3.50;;
75772;SDS011;64381;0.000;0.000;2022-11-13T14:48:55;6.72;;;3.63;;
75772;SDS011;64381;0.000;0.000;2022-11-13T14:51:26;7.75;;;3.58;;
75772;SDS011;64381;0.000;0.000;2022-11-13T14:53:57;6.47;;;3.60;;
75772;SDS011;64381;0.000;0.000;2022-11-13T14:56:39;5.90;;;3.65;;
75772;SDS011;64381;0.000;0.000;2022-11-13T14:59:06;6.43;;;3.42;;
75772;SDS011;64381;0.000;0.000;2022-11-13T15:01:39;8.13;;;3.50;;
75772;SDS011;64381;0.000;0.000;2022-11-13T15:04:04;6.70;;;3.57;;
75772;SDS011;64381;0.000;0.000;2022-11-13T15:06:34;5.77;;;3.33;;
75772;SDS011;64381;0.000;0.000;2022-11-13T15:09:05;5.68;;;3.00;;
75772;SDS011;64381;0.000;0.000;2022-11-13T15:11:36;6.85;;;3.47;;
75772;SDS011;64381;0.000;0.000;2022-11-13T15:14:01;7.40;;;3.40;;
75772;SDS011;64381;0.000;0.000;2022-11-13T15:16:27;7.33;;;3.60;;
75772;SDS011;64381;0.000;0.000;2022-11-13T15:21:26;6.43;;;3.47;;
75772;SDS011;64381;0.000;0.000;2022-11-13T15:23:52;5.37;;;3.07;;
75772;SDS011;64381;0.000;0.000;2022-11-13T15:26:17;5.57;;;3.20;;
75772;SDS011;64381;0.000;0.000;2022-11-13T15:28:42;5.27;;;3.20;;
75772;SDS011;64381;0.000;0.000;2022-11-13T15:31:14;5.30;;;3.30;;
75772;SDS011;64381;0.000;0.000;2022-11-13T15:33:42;5.15;;;3.22;;
75772;SDS011;64381;0.000;0.000;2022-11-13T15:36:08;7.17;;;3.60;;
75772;SDS011;64381;0.000;0.000;2022-11-13T15:38:33;5.78;;;3.10;;
75772;SDS011;64381;0.000;0.000;2022-11-13T15:40:59;4.93;;;2.90;;
75772;SDS011;64381;0.000;0.000;2022-11-13T15:43:24;5.77;;;3.23;;
75772;SDS011;64381;0.000;0.000;2022-11-13T15:45:49;5.53;;;3.07;;
75772;SDS011;64381;0.000;0.000;2022-11-13T15:48:14;4.88;;;2.90;;
75772;SDS011;64381;0.000;0.000;2022-11-13T15:50:40;5.30;;;3.10;;
75772;SDS011;64381;0.000;0.000;2022-11-13T15:53:06;5.33;;;2.97;;
75772;SDS011;64381;0.000;0.000;2022-11-13T15:55:34;5.63;;;3.00;;
75772;SDS011;64381;0.000;0.000;2022-11-13T15:57:59;7.72;;;3.28;;
75772;SDS011;64381;0.000;0.000;2022-11-13T16:00:26;5.00;;;3.13;;
75772;SDS011;64381;0.000;0.000;2022-11-13T16:02:52;7.10;;;3.60;;
75772;SDS011;64381;0.000;0.000;2022-11-13T16:05:19;5.93;;;3.05;;
75772;SDS011;64381;0.000;0.000;2022-11-13T16:07:44;6.30;;;3.20;;
75772;SDS011;64381;0.000;0.000;2022-11-13T16:10:09;5.73;;;3.20;;
75772;SDS011;64381;0.000;0.000;2022-11-13T16:12:35;8.73;;;3.10;;
75772;SDS011;64381;0.000;0.000;2022-11-13T16:15:00;5.90;;;3.27;;
75772;SDS011;64381;0.000;0.000;2022-11-13T16:17:26;5.80;;;3.00;;
75772;SDS011;64381;0.000;0.000;2022-11-13T16:19:51;7.20;;;3.03;;
75772;SDS011;64381;0.000;0.000;2022-11-13T16:22:19;7.75;;;3.20;;
75772;SDS011;64381;0.000;0.000;2022-11-13T16:24:46;6.57;;;3.40;;
75772;SDS011;64381;0.000;0.000;2022-11-13T16:27:12;5.00;;;2.87;;
75772;SDS011;64381;0.000;0.000;2022-11-13T16:29:46;9.43;;;3.28;;
75772;SDS011;64381;0.000;0.000;2022-11-13T16:32:14;6.80;;;3.10;;
75772;SDS011;64381;0.000;0.000;2022-11-13T16:34:41;6.22;;;3.60;;
75772;SDS011;64381;0.000;0.000;2022-11-13T16:37:24;7.30;;;3.30;;
75772;SDS011;64381;0.000;0.000;2022-11-13T16:39:50;6.40;;;3.60;;
75772;SDS011;64381;0.000;0.000;2022-11-13T16:42:15;5.70;;;3.27;;
75772;SDS011;64381;0.000;0.000;2022-11-13T16:44:41;6.40;;;3.40;;
75772;SDS011;64381;0.000;0.000;2022-11-13T16:47:40;5.75;;;3.45;;